createdAt,value
2022-09-21T00:00:37.136Z,90.79
2022-09-21T00:05:38.526Z,90.00
2022-09-21T00:10:40.769Z,90.44
2022-09-21T00:15:42.181Z,91.15
2022-09-21T00:20:43.674Z,91.53
2022-09-21T00:25:45.114Z,90.80
2022-09-21T00:30:51.640Z,91.21
2022-09-21T00:35:53.043Z,91.33
2022-09-21T00:40:54.484Z,91.27
2022-09-21T00:46:05.195Z,91.72
2022-09-21T00:51:08.529Z,90.95
2022-09-21T00:56:12.224Z,91.03
2022-09-21T01:01:18.606Z,91.50
2022-09-21T01:06:21.425Z,92.24
2022-09-21T01:11:56.919Z,92.02
2022-09-21T01:17:09.142Z,92.04
2022-09-21T01:23:04.890Z,91.93
2022-09-21T01:28:18.509Z,91.82
2022-09-21T01:33:27.468Z,91.94
2022-09-21T01:38:35.699Z,91.92
2022-09-21T01:43:42.259Z,92.56
2022-09-21T01:48:48.190Z,91.79
2022-09-21T01:53:56.229Z,92.70
2022-09-21T01:59:06.378Z,92.17
2022-09-21T02:04:13.081Z,93.65
2022-09-21T02:09:14.576Z,92.45
2022-09-21T02:14:20.335Z,92.68
2022-09-21T02:19:42.042Z,92.77
2022-09-21T02:24:48.001Z,92.87
2022-09-21T02:30:13.001Z,93.35
2022-09-21T02:35:28.358Z,93.65
2022-09-21T02:40:48.043Z,93.38
2022-09-21T02:45:59.610Z,93.35
2022-09-21T02:51:10.062Z,92.90
2022-09-21T02:56:13.192Z,92.73
2022-09-21T03:01:16.279Z,93.87
2022-09-21T03:06:17.728Z,94.35
2022-09-21T03:11:20.561Z,94.94
2022-09-21T03:16:22.836Z,93.74
2022-09-21T03:21:24.347Z,94.46
2022-09-21T03:26:25.855Z,94.39
2022-09-21T03:31:27.295Z,94.11
2022-09-21T03:36:28.690Z,93.97
2022-09-21T03:41:30.134Z,94.83
2022-09-21T03:46:35.219Z,94.59
2022-09-21T03:51:36.675Z,93.48
2022-09-21T03:56:38.319Z,94.32
2022-09-21T04:01:39.809Z,95.01
2022-09-21T04:06:41.268Z,94.57
2022-09-21T04:11:44.801Z,94.79
2022-09-21T04:16:46.391Z,95.09
2022-09-21T04:21:48.270Z,94.04
2022-09-21T04:26:49.823Z,94.17
2022-09-21T04:31:51.246Z,94.69
2022-09-21T04:36:54.727Z,93.95
2022-09-21T04:41:56.856Z,95.65
2022-09-21T04:46:58.600Z,94.69
2022-09-21T04:52:00.158Z,93.96
2022-09-21T04:57:01.606Z,94.55
2022-09-21T05:02:03.027Z,95.35
2022-09-21T05:07:04.498Z,95.21
2022-09-21T05:12:06.282Z,95.42
2022-09-21T05:17:07.740Z,95.23
2022-09-21T05:22:09.365Z,94.65
2022-09-21T05:27:10.801Z,94.89
2022-09-21T05:32:24.666Z,95.41
2022-09-21T05:38:01.330Z,94.08
2022-09-21T05:43:03.101Z,94.40
2022-09-21T05:48:13.712Z,95.09
2022-09-21T05:53:30.991Z,95.11
2022-09-21T05:58:57.171Z,95.05
2022-09-21T06:03:59.906Z,94.89
2022-09-21T06:09:01.365Z,96.21
2022-09-21T06:14:03.051Z,96.40
2022-09-21T06:19:04.534Z,94.92
2022-09-21T06:24:06.018Z,95.33
2022-09-21T06:29:07.649Z,95.80
2022-09-21T06:34:09.080Z,96.96
2022-09-21T06:39:10.485Z,96.33
2022-09-21T06:44:11.888Z,96.44
2022-09-21T06:49:13.323Z,96.04
2022-09-21T06:54:14.751Z,96.37
2022-09-21T06:59:16.152Z,95.03
2022-09-21T07:04:20.858Z,95.30
2022-09-21T07:14:46.297Z,97.04
2022-09-21T07:19:47.914Z,98.42
2022-09-21T07:24:49.428Z,97.42
2022-09-21T07:29:51.202Z,97.08
2022-09-21T07:34:56.387Z,95.92
2022-09-21T07:39:57.942Z,95.78
2022-09-21T07:45:03.841Z,96.18
2022-09-21T07:50:06.319Z,94.94
2022-09-21T07:55:08.420Z,95.43
2022-09-21T08:00:10.456Z,93.10
2022-09-21T08:05:11.933Z,92.53
2022-09-21T08:10:13.357Z,91.50
2022-09-21T08:15:37.056Z,92.96
2022-09-21T08:20:36.195Z,92.93
2022-09-21T08:25:37.680Z,92.43
2022-09-21T08:30:39.125Z,93.29
2022-09-21T08:35:40.552Z,93.27
2022-09-21T08:40:42.138Z,93.54
2022-09-21T08:45:46.012Z,92.97
2022-09-21T08:50:54.050Z,91.90
2022-09-21T08:55:57.268Z,91.55
2022-09-21T09:01:08.053Z,92.05
2022-09-21T09:06:36.304Z,92.74
2022-09-21T09:11:52.685Z,92.30
2022-09-21T09:17:07.294Z,91.71
2022-09-21T09:22:14.850Z,91.70
2022-09-21T09:27:32.562Z,89.99
2022-09-21T09:32:41.173Z,88.66
2022-09-21T09:37:44.807Z,86.99
2022-09-21T09:43:07.018Z,87.64
2022-09-21T09:48:54.484Z,86.65
2022-09-21T09:54:00.582Z,86.58
2022-09-21T09:59:08.261Z,85.13
2022-09-21T10:04:15.150Z,84.19
2022-09-21T10:09:27.499Z,85.90
2022-09-21T10:14:34.289Z,83.48
2022-09-21T10:19:37.830Z,82.06
2022-09-21T10:24:40.834Z,81.15
2022-09-21T10:29:46.145Z,80.40
2022-09-21T10:35:10.265Z,79.44
2022-09-21T10:40:17.465Z,75.27
2022-09-21T10:45:23.092Z,76.19
2022-09-21T10:50:37.014Z,75.74
2022-09-21T10:56:14.236Z,76.83
2022-09-21T11:01:23.713Z,74.16
2022-09-21T11:06:30.540Z,72.97
2022-09-21T11:11:50.207Z,71.54
2022-09-21T11:16:58.087Z,72.34
2022-09-21T11:22:02.556Z,72.68
2022-09-21T11:27:12.896Z,73.34
2022-09-21T11:32:34.012Z,72.34
2022-09-21T11:38:05.761Z,71.29
2022-09-21T11:43:27.473Z,70.09
2022-09-21T11:49:06.369Z,69.59
2022-09-21T11:54:15.162Z,69.04
2022-09-21T12:00:01.313Z,68.89
2022-09-21T12:05:13.005Z,66.98
2022-09-21T12:10:37.400Z,67.54
2022-09-21T12:16:11.635Z,69.35
2022-09-21T12:21:21.982Z,68.29
2022-09-21T12:26:29.732Z,66.66
2022-09-21T12:32:03.536Z,65.77
2022-09-21T12:37:15.163Z,66.83
2022-09-21T12:42:33.572Z,65.44
2022-09-21T12:47:56.804Z,63.38
2022-09-21T12:52:59.094Z,64.42
2022-09-21T12:58:16.307Z,65.10
2022-09-21T13:03:52.538Z,62.85
2022-09-21T13:08:54.408Z,64.44
2022-09-21T13:14:02.587Z,64.46
2022-09-21T13:19:13.033Z,64.67
2022-09-21T13:24:30.347Z,62.06
2022-09-21T13:29:34.961Z,63.13
2022-09-21T13:34:41.369Z,64.34
2022-09-21T13:39:57.930Z,65.13
2022-09-21T13:45:24.122Z,67.24
2022-09-21T13:50:37.113Z,65.82
2022-09-21T13:55:50.619Z,64.37
2022-09-21T14:01:09.945Z,63.14
2022-09-21T14:06:27.216Z,63.10
2022-09-21T14:11:29.098Z,64.35
2022-09-21T14:16:39.954Z,65.35
2022-09-21T14:22:04.184Z,67.00
2022-09-21T14:27:18.998Z,66.31
2022-09-21T14:32:24.897Z,62.11
2022-09-21T14:37:28.083Z,63.57
2022-09-21T14:42:31.845Z,63.91
2022-09-21T14:47:56.323Z,62.56
2022-09-21T14:53:29.053Z,62.77
2022-09-21T14:58:52.283Z,63.12
2022-09-21T15:04:21.864Z,62.74
2022-09-21T15:09:48.087Z,63.58
2022-09-21T15:15:20.173Z,63.83
2022-09-21T15:20:25.901Z,64.60
2022-09-21T15:25:32.197Z,65.05
2022-09-21T15:30:44.015Z,65.68
2022-09-21T15:35:47.218Z,66.78
2022-09-21T15:40:50.837Z,67.98
2022-09-21T15:45:59.213Z,68.88
2022-09-21T15:51:24.659Z,68.77
2022-09-21T15:56:28.724Z,68.40
2022-09-21T16:01:31.576Z,68.11
2022-09-21T16:06:38.815Z,69.13
2022-09-21T16:11:41.303Z,69.61
2022-09-21T16:17:13.570Z,70.50
2022-09-21T16:22:19.069Z,70.44
2022-09-21T16:27:23.988Z,70.30
2022-09-21T16:32:32.983Z,69.24
2022-09-21T16:37:37.454Z,68.63
2022-09-21T16:42:39.694Z,68.65
2022-09-21T16:47:41.102Z,68.48
2022-09-21T16:52:48.449Z,68.66
2022-09-21T16:57:49.993Z,68.69
2022-09-21T17:02:51.440Z,69.25
2022-09-21T17:07:58.375Z,69.96
2022-09-21T17:12:59.894Z,70.19
2022-09-21T17:18:02.170Z,69.94
2022-09-21T17:23:04.255Z,70.79
2022-09-21T17:28:23.353Z,70.78
2022-09-21T17:33:25.346Z,71.37
2022-09-21T17:38:26.768Z,71.62
2022-09-21T17:43:32.080Z,71.63
2022-09-21T17:48:34.421Z,72.11
2022-09-21T17:53:40.339Z,72.61
2022-09-21T17:58:48.770Z,73.10
2022-09-21T18:03:50.947Z,74.04
2022-09-21T18:08:53.822Z,74.51
2022-09-21T18:14:07.442Z,74.52
2022-09-21T18:19:32.119Z,74.38
2022-09-21T18:24:33.739Z,74.73
2022-09-21T18:29:40.052Z,74.82
2022-09-21T18:35:05.651Z,75.71
2022-09-21T18:40:21.888Z,76.28
2022-09-21T18:45:36.146Z,77.04
2022-09-21T18:50:56.452Z,77.27
2022-09-21T18:55:58.123Z,76.93
2022-09-21T19:01:00.321Z,77.71
2022-09-21T19:06:14.886Z,77.79
2022-09-21T19:11:34.758Z,78.25
2022-09-21T19:16:54.759Z,78.97
2022-09-21T19:22:13.824Z,79.50
2022-09-21T19:27:43.168Z,80.28
2022-09-21T19:32:50.988Z,80.27
2022-09-21T19:37:57.572Z,80.64
2022-09-21T19:43:14.238Z,80.71
2022-09-21T19:48:16.711Z,80.97
2022-09-21T19:53:41.308Z,82.09
2022-09-21T19:59:01.740Z,81.97
2022-09-21T20:04:06.301Z,82.08
2022-09-21T20:09:17.131Z,82.02
2022-09-21T20:14:42.528Z,81.93
2022-09-21T20:19:53.047Z,82.51
2022-09-21T20:25:23.770Z,82.66
2022-09-21T20:30:28.420Z,82.66
2022-09-21T20:35:30.789Z,84.00
2022-09-21T20:40:32.825Z,83.55
2022-09-21T20:45:35.494Z,82.67
2022-09-21T20:50:37.398Z,82.60
2022-09-21T20:55:39.881Z,82.81
2022-09-21T21:00:41.302Z,82.23
2022-09-21T21:05:42.755Z,81.65
2022-09-21T21:10:46.528Z,82.04
2022-09-21T21:15:52.787Z,81.74
2022-09-21T21:20:54.215Z,81.36
2022-09-21T21:25:55.608Z,81.74
2022-09-21T21:30:57.013Z,80.94
2022-09-21T21:36:04.274Z,81.15
2022-09-21T21:41:05.720Z,81.08
2022-09-21T21:46:08.917Z,81.61
2022-09-21T21:51:10.360Z,82.63
2022-09-21T21:56:15.025Z,82.92
2022-09-21T22:01:22.306Z,83.80
2022-09-21T22:06:25.084Z,85.36
2022-09-21T22:11:29.021Z,84.81
2022-09-21T22:16:32.198Z,84.54
2022-09-21T22:21:41.825Z,85.08
2022-09-21T22:26:45.059Z,85.70
2022-09-21T22:31:48.829Z,86.52
2022-09-21T22:36:50.675Z,86.45
2022-09-21T22:41:52.083Z,86.66
2022-09-21T22:46:53.495Z,87.11
2022-09-21T22:51:54.947Z,87.05
2022-09-21T22:56:56.439Z,87.60
2022-09-21T23:01:57.840Z,87.31
2022-09-21T23:06:59.253Z,87.60
2022-09-21T23:12:00.949Z,87.69
2022-09-21T23:17:02.353Z,87.79
2022-09-21T23:22:03.760Z,88.44
2022-09-21T23:27:05.232Z,88.45
2022-09-21T23:32:06.680Z,88.26
2022-09-21T23:37:08.136Z,88.15
2022-09-21T23:42:09.707Z,87.88
2022-09-21T23:47:11.106Z,88.24
2022-09-21T23:52:12.503Z,89.36
2022-09-21T23:57:13.950Z,89.22
